sensor_id;sensor_type;location;lat;lon;timestamp;pressure;altitude;pressure_sealevel;temperature;humidity
79563;BME280;69026;50.980;11.314;2023-04-06T00:01:10;99375.94;;;15.87;53.78
79563;BME280;69026;50.980;11.314;2023-04-06T00:03:36;99377.84;;;15.86;53.64
79563;BME280;69026;50.980;11.314;2023-04-06T00:06:03;99375.09;;;15.86;53.76
79563;BME280;69026;50.980;11.314;2023-04-06T00:08:29;99371.56;;;15.86;53.67
79563;BME280;69026;50.980;11.314;2023-04-06T00:10:56;99374.28;;;15.86;53.64
79563;BME280;69026;50.980;11.314;2023-04-06T00:13:21;99371.56;;;15.86;53.54
79563;BME280;69026;50.980;11.314;2023-04-06T00:15:47;99374.28;;;15.86;53.70
79563;BME280;69026;50.980;11.314;2023-04-06T00:18:13;99368.81;;;15.86;53.78
79563;BME280;69026;50.980;11.314;2023-04-06T00:20:39;99369.88;;;15.85;53.62
79563;BME280;69026;50.980;11.314;2023-04-06T00:23:05;99367.13;;;15.85;53.67
79563;BME280;69026;50.980;11.314;2023-04-06T00:25:31;99360.03;;;15.84;53.71
79563;BME280;69026;50.980;11.314;2023-04-06T00:27:57;99361.66;;;15.85;53.64
79563;BME280;69026;50.980;11.314;2023-04-06T00:30:23;99369.88;;;15.85;53.68
79563;BME280;69026;50.980;11.314;2023-04-06T00:32:50;99361.66;;;15.85;53.43
79563;BME280;69026;50.980;11.314;2023-04-06T00:35:16;99354.56;;;15.84;53.73
79563;BME280;69026;50.980;11.314;2023-04-06T00:37:42;99354.56;;;15.84;53.77
79563;BME280;69026;50.980;11.314;2023-04-06T00:40:08;99352.91;;;15.83;53.85
79563;BME280;69026;50.980;11.314;2023-04-06T00:42:34;99359.19;;;15.83;53.78
79563;BME280;69026;50.980;11.314;2023-04-06T00:45:01;99352.06;;;15.82;53.69
79563;BME280;69026;50.980;11.314;2023-04-06T00:47:28;99351.22;;;15.82;53.80
79563;BME280;69026;50.980;11.314;2023-04-06T00:49:54;99346.59;;;15.82;53.73
79563;BME280;69026;50.980;11.314;2023-04-06T00:52:21;99346.59;;;15.82;53.81
79563;BME280;69026;50.980;11.314;2023-04-06T00:54:48;99346.59;;;15.82;53.77
79563;BME280;69026;50.980;11.314;2023-04-06T00:57:16;99345.75;;;15.82;53.59
79563;BME280;69026;50.980;11.314;2023-04-06T00:59:44;99338.66;;;15.81;53.80
79563;BME280;69026;50.980;11.314;2023-04-06T01:02:12;99335.91;;;15.81;53.82
79563;BME280;69026;50.980;11.314;2023-04-06T01:04:44;99333.19;;;15.81;53.80
79563;BME280;69026;50.980;11.314;2023-04-06T01:07:18;99331.25;;;15.81;53.61
79563;BME280;69026;50.980;11.314;2023-04-06T01:09:59;99332.34;;;15.80;53.71
79563;BME280;69026;50.980;11.314;2023-04-06T01:12:27;99331.50;;;15.80;53.67
79563;BME280;69026;50.980;11.314;2023-04-06T01:14:53;99326.03;;;15.80;53.63
79563;BME280;69026;50.980;11.314;2023-04-06T01:17:19;99329.84;;;15.79;53.76
79563;BME280;69026;50.980;11.314;2023-04-06T01:19:45;99324.38;;;15.79;53.74
79563;BME280;69026;50.980;11.314;2023-04-06T01:22:20;99329.84;;;15.79;53.49
79563;BME280;69026;50.980;11.314;2023-04-06T01:24:55;99317.25;;;15.78;53.72
79563;BME280;69026;50.980;11.314;2023-04-06T01:27:32;99322.72;;;15.78;53.56
79563;BME280;69026;50.980;11.314;2023-04-06T01:30:16;99321.06;;;15.77;53.76
79563;BME280;69026;50.980;11.314;2023-04-06T01:32:50;99325.44;;;15.78;53.78
79563;BME280;69026;50.980;11.314;2023-04-06T01:35:22;99315.59;;;15.77;53.74
79563;BME280;69026;50.980;11.314;2023-04-06T01:37:58;99317.50;;;15.76;53.69
79563;BME280;69026;50.980;11.314;2023-04-06T01:40:29;99322.16;;;15.76;53.69
79563;BME280;69026;50.980;11.314;2023-04-06T01:42:55;99313.94;;;15.76;53.80
79563;BME280;69026;50.980;11.314;2023-04-06T01:45:30;99312.28;;;15.75;53.56
79563;BME280;69026;50.980;11.314;2023-04-06T01:48:02;99308.47;;;15.76;53.90
79563;BME280;69026;50.980;11.314;2023-04-06T01:50:29;99315.00;;;15.75;53.74
79563;BME280;69026;50.980;11.314;2023-04-06T01:52:54;99315.00;;;15.75;53.66
79563;BME280;69026;50.980;11.314;2023-04-06T01:55:22;99309.53;;;15.75;53.71
79563;BME280;69026;50.980;11.314;2023-04-06T01:58:12;99317.75;;;15.75;53.67
79563;BME280;69026;50.980;11.314;2023-04-06T02:00:39;99314.19;;;15.74;53.81
79563;BME280;69026;50.980;11.314;2023-04-06T02:03:05;99309.53;;;15.75;53.75
79563;BME280;69026;50.980;11.314;2023-04-06T02:05:32;99315.00;;;15.75;53.67
79563;BME280;69026;50.980;11.314;2023-04-06T02:08:12;99312.28;;;15.75;53.67
79563;BME280;69026;50.980;11.314;2023-04-06T02:10:38;99305.97;;;15.74;53.66
79563;BME280;69026;50.980;11.314;2023-04-06T02:13:12;99305.16;;;15.74;53.75
79563;BME280;69026;50.980;11.314;2023-04-06T02:15:44;99303.50;;;15.73;53.59
79563;BME280;69026;50.980;11.314;2023-04-06T02:18:10;99309.81;;;15.73;53.73
79563;BME280;69026;50.980;11.314;2023-04-06T02:20:36;99311.13;;;15.71;53.69
79563;BME280;69026;50.980;11.314;2023-04-06T02:23:02;99304.81;;;15.70;53.73
79563;BME280;69026;50.980;11.314;2023-04-06T02:25:28;99302.09;;;15.70;53.75
79563;BME280;69026;50.980;11.314;2023-04-06T02:27:54;99306.69;;;15.69;53.75
79563;BME280;69026;50.980;11.314;2023-04-06T02:30:20;99303.97;;;15.69;53.72
79563;BME280;69026;50.980;11.314;2023-04-06T02:32:47;99309.44;;;15.69;53.81
79563;BME280;69026;50.980;11.314;2023-04-06T02:35:13;99309.44;;;15.69;53.84
79563;BME280;69026;50.980;11.314;2023-04-06T02:37:40;99302.31;;;15.68;53.67
79563;BME280;69026;50.980;11.314;2023-04-06T02:40:06;99297.69;;;15.69;53.73
79563;BME280;69026;50.980;11.314;2023-04-06T02:42:32;99294.94;;;15.69;53.68
79563;BME280;69026;50.980;11.314;2023-04-06T02:44:59;99303.97;;;15.69;53.72
79563;BME280;69026;50.980;11.314;2023-04-06T02:47:30;99299.59;;;15.68;53.76
79563;BME280;69026;50.980;11.314;2023-04-06T02:49:56;99298.50;;;15.69;53.71
79563;BME280;69026;50.980;11.314;2023-04-06T02:52:21;99295.75;;;15.69;53.70
79563;BME280;69026;50.980;11.314;2023-04-06T02:54:47;99296.84;;;15.68;53.65
79563;BME280;69026;50.980;11.314;2023-04-06T02:57:21;99302.31;;;15.68;53.70
79563;BME280;69026;50.980;11.314;2023-04-06T02:59:47;99303.16;;;15.69;53.58
79563;BME280;69026;50.980;11.314;2023-04-06T03:02:18;99294.13;;;15.68;53.64
79563;BME280;69026;50.980;11.314;2023-04-06T03:04:45;99296.84;;;15.68;53.71
79563;BME280;69026;50.980;11.314;2023-04-06T03:07:20;99292.44;;;15.67;53.65
79563;BME280;69026;50.980;11.314;2023-04-06T03:09:46;99295.19;;;15.67;53.65
79563;BME280;69026;50.980;11.314;2023-04-06T03:12:12;99296.00;;;15.68;53.80
79563;BME280;69026;50.980;11.314;2023-04-06T03:14:58;99293.53;;;15.66;53.67
79563;BME280;69026;50.980;11.314;2023-04-06T03:17:24;99299.00;;;15.66;53.67
79563;BME280;69026;50.980;11.314;2023-04-06T03:19:50;99298.16;;;15.66;53.77
79563;BME280;69026;50.980;11.314;2023-04-06T03:22:16;99291.88;;;15.65;53.63
79563;BME280;69026;50.980;11.314;2023-04-06T03:24:45;99295.69;;;15.64;53.68
79563;BME280;69026;50.980;11.314;2023-04-06T03:27:11;99294.88;;;15.64;53.66
79563;BME280;69026;50.980;11.314;2023-04-06T03:29:37;99290.22;;;15.64;53.65
79563;BME280;69026;50.980;11.314;2023-04-06T03:32:04;99294.88;;;15.64;53.99
79563;BME280;69026;50.980;11.314;2023-04-06T03:34:38;99300.34;;;15.64;53.67
79563;BME280;69026;50.980;11.314;2023-04-06T03:37:04;99299.47;;;15.63;53.70
79563;BME280;69026;50.980;11.314;2023-04-06T03:39:30;99299.47;;;15.63;53.66
79563;BME280;69026;50.980;11.314;2023-04-06T03:41:57;99298.41;;;15.64;53.79
79563;BME280;69026;50.980;11.314;2023-04-06T03:44:37;99299.47;;;15.63;53.54
79563;BME280;69026;50.980;11.314;2023-04-06T03:47:05;99299.47;;;15.63;53.65
79563;BME280;69026;50.980;11.314;2023-04-06T03:49:31;99304.94;;;15.63;53.58
79563;BME280;69026;50.980;11.314;2023-04-06T03:51:58;99314.00;;;15.64;53.27
79563;BME280;69026;50.980;11.314;2023-04-06T03:54:24;99313.16;;;15.63;53.55
79563;BME280;69026;50.980;11.314;2023-04-06T03:56:50;99309.59;;;15.63;53.49
79563;BME280;69026;50.980;11.314;2023-04-06T03:59:16;99317.56;;;15.64;53.60
79563;BME280;69026;50.980;11.314;2023-04-06T04:01:41;99313.16;;;15.63;53.52
79563;BME280;69026;50.980;11.314;2023-04-06T04:04:07;99325.19;;;15.62;53.47
79563;BME280;69026;50.980;11.314;2023-04-06T04:06:33;99315.06;;;15.63;53.40
79563;BME280;69026;50.980;11.314;2023-04-06T04:08:59;99317.00;;;15.62;53.56
79563;BME280;69026;50.980;11.314;2023-04-06T04:11:25;99318.06;;;15.61;53.55
79563;BME280;69026;50.980;11.314;2023-04-06T04:13:56;99324.38;;;15.62;53.70
79563;BME280;69026;50.980;11.314;2023-04-06T04:16:22;99326.53;;;15.60;53.51
79563;BME280;69026;50.980;11.314;2023-04-06T04:18:48;99321.88;;;15.60;53.57
79563;BME280;69026;50.980;11.314;2023-04-06T04:21:14;99328.16;;;15.61;53.36
79563;BME280;69026;50.980;11.314;2023-04-06T04:23:40;99320.22;;;15.59;53.53
79563;BME280;69026;50.980;11.314;2023-04-06T04:26:06;99329.25;;;15.60;53.65
79563;BME280;69026;50.980;11.314;2023-04-06T04:28:33;99329.50;;;15.58;53.65
79563;BME280;69026;50.980;11.314;2023-04-06T04:30:59;99329.50;;;15.58;53.81
79563;BME280;69026;50.980;11.314;2023-04-06T04:33:26;99329.50;;;15.58;53.59
79563;BME280;69026;50.980;11.314;2023-04-06T04:35:55;99331.16;;;15.59;53.68
79563;BME280;69026;50.980;11.314;2023-04-06T04:38:24;99334.97;;;15.58;53.42
79563;BME280;69026;50.980;11.314;2023-04-06T04:40:52;99334.97;;;15.58;53.50
79563;BME280;69026;50.980;11.314;2023-04-06T04:43:18;99332.22;;;15.58;53.62
79563;BME280;69026;50.980;11.314;2023-04-06T04:45:44;99329.50;;;15.58;53.44
79563;BME280;69026;50.980;11.314;2023-04-06T04:48:23;99324.03;;;15.58;53.47
79563;BME280;69026;50.980;11.314;2023-04-06T04:50:54;99324.03;;;15.58;53.41
79563;BME280;69026;50.980;11.314;2023-04-06T04:53:23;99326.75;;;15.58;53.44
79563;BME280;69026;50.980;11.314;2023-04-06T04:58:19;99328.66;;;15.58;53.37
79563;BME280;69026;50.980;11.314;2023-04-06T05:00:52;99332.22;;;15.58;53.80
79563;BME280;69026;50.980;11.314;2023-04-06T05:03:24;99327.84;;;15.57;53.58
79563;BME280;69026;50.980;11.314;2023-04-06T05:06:04;99328.66;;;15.58;53.60
79563;BME280;69026;50.980;11.314;2023-04-06T05:08:33;99326.16;;;15.56;53.40
79563;BME280;69026;50.980;11.314;2023-04-06T05:11:00;99328.91;;;15.56;53.47
79563;BME280;69026;50.980;11.314;2023-04-06T05:13:30;99337.97;;;15.57;53.47
79563;BME280;69026;50.980;11.314;2023-04-06T05:15:56;99330.81;;;15.56;53.35
79563;BME280;69026;50.980;11.314;2023-04-06T05:18:25;99337.13;;;15.56;53.42
79563;BME280;69026;50.980;11.314;2023-04-06T05:20:52;99339.03;;;15.56;53.37
79563;BME280;69026;50.980;11.314;2023-04-06T05:23:22;99332.72;;;15.55;53.51
79563;BME280;69026;50.980;11.314;2023-04-06T05:25:50;99339.84;;;15.56;53.40
79563;BME280;69026;50.980;11.314;2023-04-06T05:28:20;99342.59;;;15.56;53.44
79563;BME280;69026;50.980;11.314;2023-04-06T05:30:46;99340.94;;;15.55;53.38
79563;BME280;69026;50.980;11.314;2023-04-06T05:33:13;99337.13;;;15.56;53.44
79563;BME280;69026;50.980;11.314;2023-04-06T05:35:57;99344.50;;;15.56;53.41
79563;BME280;69026;50.980;11.314;2023-04-06T05:38:23;99346.16;;;15.57;53.39
79563;BME280;69026;50.980;11.314;2023-04-06T05:40:52;99344.25;;;15.57;53.41
79563;BME280;69026;50.980;11.314;2023-04-06T05:43:21;99343.44;;;15.57;53.63
79563;BME280;69026;50.980;11.314;2023-04-06T05:45:52;99349.72;;;15.57;53.54
79563;BME280;69026;50.980;11.314;2023-04-06T05:48:19;99355.19;;;15.57;53.25
79563;BME280;69026;50.980;11.314;2023-04-06T05:50:49;99347.81;;;15.58;53.41
79563;BME280;69026;50.980;11.314;2023-04-06T05:53:18;99349.72;;;15.57;53.48
79563;BME280;69026;50.980;11.314;2023-04-06T05:55:52;99349.72;;;15.57;53.27
79563;BME280;69026;50.980;11.314;2023-04-06T05:58:19;99348.91;;;15.57;53.38
79563;BME280;69026;50.980;11.314;2023-04-06T06:00:47;99355.19;;;15.57;53.31
79563;BME280;69026;50.980;11.314;2023-04-06T06:03:15;99355.19;;;15.57;53.38
79563;BME280;69026;50.980;11.314;2023-04-06T06:05:47;99353.28;;;15.58;53.45
79563;BME280;69026;50.980;11.314;2023-04-06T06:08:19;99355.19;;;15.57;53.65
79563;BME280;69026;50.980;11.314;2023-04-06T06:10:47;99348.06;;;15.56;53.27
79563;BME280;69026;50.980;11.314;2023-04-06T06:13:15;99348.06;;;15.56;53.32
79563;BME280;69026;50.980;11.314;2023-04-06T06:15:41;99353.53;;;15.56;53.44
79563;BME280;69026;50.980;11.314;2023-04-06T06:18:07;99348.06;;;15.56;53.38
79563;BME280;69026;50.980;11.314;2023-04-06T06:20:34;99348.06;;;15.56;53.32
79563;BME280;69026;50.980;11.314;2023-04-06T06:23:03;99346.41;;;15.55;53.52
79563;BME280;69026;50.980;11.314;2023-04-06T06:25:30;99349.13;;;15.55;53.27
79563;BME280;69026;50.980;11.314;2023-04-06T06:27:59;99347.22;;;15.56;53.39
79563;BME280;69026;50.980;11.314;2023-04-06T06:30:27;99350.56;;;15.58;53.35
79563;BME280;69026;50.980;11.314;2023-04-06T06:32:53;99349.13;;;15.55;53.32
79563;BME280;69026;50.980;11.314;2023-04-06T06:35:19;99345.06;;;15.41;47.67
79563;BME280;69026;50.980;11.314;2023-04-06T06:37:46;99345.69;;;15.14;43.93
79563;BME280;69026;50.980;11.314;2023-04-06T06:40:16;99350.78;;;14.94;42.76
79563;BME280;69026;50.980;11.314;2023-04-06T06:42:44;99347.06;;;14.71;41.66
79563;BME280;69026;50.980;11.314;2023-04-06T06:45:20;99343.06;;;14.50;40.41
79563;BME280;69026;50.980;11.314;2023-04-06T06:47:46;99351.28;;;14.38;40.16
79563;BME280;69026;50.980;11.314;2023-04-06T06:50:12;99344.66;;;14.11;38.92
79563;BME280;69026;50.980;11.314;2023-04-06T06:52:39;99348.81;;;14.02;39.23
79563;BME280;69026;50.980;11.314;2023-04-06T06:55:06;99354.03;;;13.91;39.02
79563;BME280;69026;50.980;11.314;2023-04-06T06:57:32;99361.63;;;13.89;38.51
79563;BME280;69026;50.980;11.314;2023-04-06T06:59:58;99356.78;;;13.79;37.93
79563;BME280;69026;50.980;11.314;2023-04-06T07:02:26;99353.56;;;13.71;37.87
79563;BME280;69026;50.980;11.314;2023-04-06T07:04:52;99350.38;;;13.74;37.97
79563;BME280;69026;50.980;11.314;2023-04-06T07:07:18;99345.38;;;13.83;38.99
79563;BME280;69026;50.980;11.314;2023-04-06T07:09:44;99343.97;;;13.92;39.36
79563;BME280;69026;50.980;11.314;2023-04-06T07:12:10;99347.16;;;14.00;39.90
79563;BME280;69026;50.980;11.314;2023-04-06T07:14:36;99345.75;;;14.10;41.49
79563;BME280;69026;50.980;11.314;2023-04-06T07:17:02;99355.47;;;14.17;41.33
79563;BME280;69026;50.980;11.314;2023-04-06T07:19:28;99350.47;;;14.26;41.53
79563;BME280;69026;50.980;11.314;2023-04-06T07:21:55;99345.72;;;14.33;41.42
79563;BME280;69026;50.980;11.314;2023-04-06T07:24:21;99343.91;;;14.39;41.42
79563;BME280;69026;50.980;11.314;2023-04-06T07:26:47;99336.66;;;14.45;42.15
79563;BME280;69026;50.980;11.314;2023-04-06T07:29:13;99339.47;;;14.50;41.90
79563;BME280;69026;50.980;11.314;2023-04-06T07:31:40;99339.63;;;14.55;42.27
79563;BME280;69026;50.980;11.314;2023-04-06T07:34:06;99340.56;;;14.60;42.09
79563;BME280;69026;50.980;11.314;2023-04-06T07:36:31;99340.94;;;14.64;41.96
79563;BME280;69026;50.980;11.314;2023-04-06T07:38:58;99336.63;;;14.68;41.73
79563;BME280;69026;50.980;11.314;2023-04-06T07:41:24;99333.03;;;14.79;43.31
79563;BME280;69026;50.980;11.314;2023-04-06T07:43:50;99335.47;;;14.93;43.11
79563;BME280;69026;50.980;11.314;2023-04-06T07:46:17;99337.06;;;15.05;43.19
79563;BME280;69026;50.980;11.314;2023-04-06T07:48:43;99330.72;;;15.17;43.26
79563;BME280;69026;50.980;11.314;2023-04-06T07:51:08;99331.72;;;15.27;43.17
79563;BME280;69026;50.980;11.314;2023-04-06T07:53:40;99333.78;;;15.37;43.13
79563;BME280;69026;50.980;11.314;2023-04-06T07:56:06;99331.47;;;15.46;43.17
79563;BME280;69026;50.980;11.314;2023-04-06T07:58:32;99334.13;;;15.58;43.36
79563;BME280;69026;50.980;11.314;2023-04-06T08:00:58;99333.47;;;15.67;43.44
79563;BME280;69026;50.980;11.314;2023-04-06T08:03:25;99330.84;;;15.73;43.07
79563;BME280;69026;50.980;11.314;2023-04-06T08:05:52;99336.66;;;15.76;42.27
79563;BME280;69026;50.980;11.314;2023-04-06T08:08:18;99328.69;;;15.75;41.46
79563;BME280;69026;50.980;11.314;2023-04-06T08:10:45;99334.31;;;15.85;41.95
79563;BME280;69026;50.980;11.314;2023-04-06T08:13:10;99336.50;;;15.83;40.02
79563;BME280;69026;50.980;11.314;2023-04-06T08:15:36;99336.38;;;15.78;38.39
79563;BME280;69026;50.980;11.314;2023-04-06T08:18:02;99338.66;;;15.81;38.11
79563;BME280;69026;50.980;11.314;2023-04-06T08:20:28;99335.91;;;15.81;37.75
79563;BME280;69026;50.980;11.314;2023-04-06T08:22:54;99334.47;;;15.95;38.56
79563;BME280;69026;50.980;11.314;2023-04-06T08:25:20;99336.78;;;16.03;39.56
79563;BME280;69026;50.980;11.314;2023-04-06T08:27:46;99342.25;;;16.03;38.79
79563;BME280;69026;50.980;11.314;2023-04-06T08:30:12;99335.78;;;16.09;38.51
79563;BME280;69026;50.980;11.314;2023-04-06T08:32:38;99338.25;;;16.11;38.72
79563;BME280;69026;50.980;11.314;2023-04-06T08:35:04;99337.59;;;16.21;39.51
79563;BME280;69026;50.980;11.314;2023-04-06T08:37:30;99333.25;;;16.25;38.98
79563;BME280;69026;50.980;11.314;2023-04-06T08:39:57;99334.59;;;16.22;38.02
79563;BME280;69026;50.980;11.314;2023-04-06T08:42:25;99328.94;;;16.29;37.97
79563;BME280;69026;50.980;11.314;2023-04-06T08:44:52;99328.22;;;16.39;38.20
79563;BME280;69026;50.980;11.314;2023-04-06T08:47:19;99333.81;;;16.49;39.75
79563;BME280;69026;50.980;11.314;2023-04-06T08:49:45;99333.41;;;16.35;34.19
79563;BME280;69026;50.980;11.314;2023-04-06T08:52:11;99316.25;;;15.84;30.86
79563;BME280;69026;50.980;11.314;2023-04-06T08:54:38;99328.50;;;15.98;31.86
79563;BME280;69026;50.980;11.314;2023-04-06T08:57:04;99315.91;;;15.97;32.01
79563;BME280;69026;50.980;11.314;2023-04-06T08:59:31;99327.53;;;15.87;31.83
79563;BME280;69026;50.980;11.314;2023-04-06T09:01:59;99323.84;;;15.99;32.62
79563;BME280;69026;50.980;11.314;2023-04-06T09:04:28;99319.38;;;16.09;32.87
79563;BME280;69026;50.980;11.314;2023-04-06T09:06:53;99324.53;;;16.28;34.56
79563;BME280;69026;50.980;11.314;2023-04-06T09:09:20;99328.00;;;16.40;34.88
79563;BME280;69026;50.980;11.314;2023-04-06T09:11:47;99322.06;;;16.48;35.49
79563;BME280;69026;50.980;11.314;2023-04-06T09:14:15;99333.22;;;16.64;35.59
79563;BME280;69026;50.980;11.314;2023-04-06T09:16:42;99334.41;;;16.73;35.92
79563;BME280;69026;50.980;11.314;2023-04-06T09:19:09;99333.91;;;16.76;37.08
79563;BME280;69026;50.980;11.314;2023-04-06T09:21:35;99325.44;;;16.78;37.57
79563;BME280;69026;50.980;11.314;2023-04-06T09:24:03;99335.09;;;16.80;37.92
79563;BME280;69026;50.980;11.314;2023-04-06T09:26:29;99329.06;;;16.83;38.20
79563;BME280;69026;50.980;11.314;2023-04-06T09:28:57;99323.06;;;16.86;38.35
79563;BME280;69026;50.980;11.314;2023-04-06T09:31:25;99315.94;;;16.85;37.27
79563;BME280;69026;50.980;11.314;2023-04-06T09:33:52;99315.44;;;16.88;37.12
79563;BME280;69026;50.980;11.314;2023-04-06T09:36:18;99311.09;;;16.92;37.77
79563;BME280;69026;50.980;11.314;2023-04-06T09:38:55;99314.72;;;16.98;38.29
79563;BME280;69026;50.980;11.314;2023-04-06T09:41:30;99315.03;;;17.02;38.19
79563;BME280;69026;50.980;11.314;2023-04-06T09:44:10;99309.03;;;17.05;38.11
79563;BME280;69026;50.980;11.314;2023-04-06T09:46:40;99306.56;;;17.08;38.51
79563;BME280;69026;50.980;11.314;2023-04-06T09:49:07;99306.38;;;17.15;39.07
79563;BME280;69026;50.980;11.314;2023-04-06T09:51:39;99303.94;;;17.19;39.21
79563;BME280;69026;50.980;11.314;2023-04-06T09:54:06;99304.25;;;17.22;39.60
79563;BME280;69026;50.980;11.314;2023-04-06T09:57:11;99308.38;;;17.25;39.31
79563;BME280;69026;50.980;11.314;2023-04-06T09:59:46;99304.34;;;17.32;39.20
79563;BME280;69026;50.980;11.314;2023-04-06T10:02:29;99299.56;;;17.50;39.12
79563;BME280;69026;50.980;11.314;2023-04-06T10:05:30;99300.50;;;17.66;37.17
79563;BME280;69026;50.980;11.314;2023-04-06T10:08:03;99303.31;;;17.76;36.06
79563;BME280;69026;50.980;11.314;2023-04-06T10:10:31;99298.75;;;17.87;36.28
79563;BME280;69026;50.980;11.314;2023-04-06T10:12:58;99290.59;;;17.97;36.20
79563;BME280;69026;50.980;11.314;2023-04-06T10:15:24;99292.00;;;18.05;35.06
79563;BME280;69026;50.980;11.314;2023-04-06T10:17:51;99298.31;;;18.10;33.67
79563;BME280;69026;50.980;11.314;2023-04-06T10:23:32;99291.56;;;18.28;35.34
79563;BME280;69026;50.980;11.314;2023-04-06T10:26:01;99291.91;;;18.37;35.15
79563;BME280;69026;50.980;11.314;2023-04-06T10:28:32;99284.72;;;18.36;31.61
79563;BME280;69026;50.980;11.314;2023-04-06T10:31:02;99276.50;;;18.41;33.65
79563;BME280;69026;50.980;11.314;2023-04-06T10:33:29;99286.44;;;18.47;33.35
79563;BME280;69026;50.980;11.314;2023-04-06T10:35:55;99286.44;;;18.52;34.05
79563;BME280;69026;50.980;11.314;2023-04-06T10:38:33;99277.97;;;18.59;33.73
79563;BME280;69026;50.980;11.314;2023-04-06T10:41:07;99280.41;;;18.55;33.76
79563;BME280;69026;50.980;11.314;2023-04-06T10:43:34;99276.25;;;18.48;34.35
79563;BME280;69026;50.980;11.314;2023-04-06T10:46:02;99270.75;;;18.37;36.16
79563;BME280;69026;50.980;11.314;2023-04-06T10:48:41;99271.78;;;18.31;35.38
79563;BME280;69026;50.980;11.314;2023-04-06T10:51:13;99262.72;;;18.26;35.52
79563;BME280;69026;50.980;11.314;2023-04-06T10:53:42;99250.06;;;18.25;35.87
79563;BME280;69026;50.980;11.314;2023-04-06T10:56:10;99254.47;;;18.20;36.99
79563;BME280;69026;50.980;11.314;2023-04-06T10:58:37;99255.28;;;18.21;37.05
79563;BME280;69026;50.980;11.314;2023-04-06T11:01:03;99253.09;;;18.18;37.27
79563;BME280;69026;50.980;11.314;2023-04-06T11:03:29;99251.97;;;18.19;37.58
79563;BME280;69026;50.980;11.314;2023-04-06T11:05:55;99250.59;;;18.16;38.24
79563;BME280;69026;50.980;11.314;2023-04-06T11:08:23;99244.28;;;18.16;37.93
79563;BME280;69026;50.980;11.314;2023-04-06T11:10:49;99250.34;;;18.18;37.86
79563;BME280;69026;50.980;11.314;2023-04-06T11:13:15;99242.34;;;18.16;37.42
79563;BME280;69026;50.980;11.314;2023-04-06T11:15:40;99244.53;;;18.14;36.94
79563;BME280;69026;50.980;11.314;2023-04-06T11:18:06;99244.28;;;18.16;36.97
79563;BME280;69026;50.980;11.314;2023-04-06T11:20:32;99234.16;;;18.27;36.01
79563;BME280;69026;50.980;11.314;2023-04-06T11:22:58;99238.59;;;18.38;35.82
79563;BME280;69026;50.980;11.314;2023-04-06T11:25:25;99235.88;;;18.48;35.90
79563;BME280;69026;50.980;11.314;2023-04-06T11:27:56;99234.25;;;18.52;36.76
79563;BME280;69026;50.980;11.314;2023-04-06T11:30:22;99227.38;;;18.55;36.62
79563;BME280;69026;50.980;11.314;2023-04-06T11:32:48;99221.34;;;18.58;36.20
79563;BME280;69026;50.980;11.314;2023-04-06T11:35:24;99225.75;;;18.59;37.06
79563;BME280;69026;50.980;11.314;2023-04-06T11:37:50;99225.44;;;18.50;37.89
79563;BME280;69026;50.980;11.314;2023-04-06T11:40:21;99225.19;;;18.57;37.00
79563;BME280;69026;50.980;11.314;2023-04-06T11:42:55;99216.13;;;18.61;35.57
79563;BME280;69026;50.980;11.314;2023-04-06T11:45:22;99218.06;;;18.66;34.35
79563;BME280;69026;50.980;11.314;2023-04-06T11:47:59;99215.88;;;18.68;33.81
79563;BME280;69026;50.980;11.314;2023-04-06T11:50:32;99209.53;;;18.62;33.03
79563;BME280;69026;50.980;11.314;2023-04-06T11:52:59;99212.00;;;18.59;33.19
79563;BME280;69026;50.980;11.314;2023-04-06T11:55:26;99207.06;;;18.61;34.05
79563;BME280;69026;50.980;11.314;2023-04-06T11:57:52;99207.34;;;18.59;34.57
79563;BME280;69026;50.980;11.314;2023-04-06T12:00:18;99209.00;;;18.60;35.61
79563;BME280;69026;50.980;11.314;2023-04-06T12:02:46;99204.56;;;18.44;36.96
79563;BME280;69026;50.980;11.314;2023-04-06T12:05:12;99202.38;;;18.46;37.86
79563;BME280;69026;50.980;11.314;2023-04-06T12:07:38;99199.88;;;18.39;37.65
79563;BME280;69026;50.980;11.314;2023-04-06T12:10:05;99197.69;;;18.41;37.31
79563;BME280;69026;50.980;11.314;2023-04-06T12:12:31;99191.91;;;18.38;37.24
79563;BME280;69026;50.980;11.314;2023-04-06T12:14:57;99182.53;;;18.34;37.45
79563;BME280;69026;50.980;11.314;2023-04-06T12:17:23;99192.13;;;18.16;38.69
79563;BME280;69026;50.980;11.314;2023-04-06T12:19:49;99186.28;;;18.02;38.52
79563;BME280;69026;50.980;11.314;2023-04-06T12:22:15;99178.63;;;18.04;37.99
79563;BME280;69026;50.980;11.314;2023-04-06T12:24:41;99173.94;;;18.05;38.36
79563;BME280;69026;50.980;11.314;2023-04-06T12:27:07;99185.50;;;18.07;35.58
79563;BME280;69026;50.980;11.314;2023-04-06T12:29:34;99185.28;;;18.23;35.19
79563;BME280;69026;50.980;11.314;2023-04-06T12:32:00;99180.59;;;18.24;36.52
79563;BME280;69026;50.980;11.314;2023-04-06T12:34:27;99180.34;;;18.26;35.69
79563;BME280;69026;50.980;11.314;2023-04-06T12:36:52;99177.28;;;18.22;37.20
79563;BME280;69026;50.980;11.314;2023-04-06T12:39:19;99177.59;;;18.20;37.41
79563;BME280;69026;50.980;11.314;2023-04-06T12:41:45;99171.53;;;18.18;36.81
79563;BME280;69026;50.980;11.314;2023-04-06T12:44:11;99179.19;;;18.11;36.31
79563;BME280;69026;50.980;11.314;2023-04-06T12:46:37;99180.81;;;18.07;34.98
79563;BME280;69026;50.980;11.314;2023-04-06T12:49:03;99176.38;;;17.96;35.83
79563;BME280;69026;50.980;11.314;2023-04-06T12:51:29;99175.84;;;17.94;36.14
79563;BME280;69026;50.980;11.314;2023-04-06T12:53:56;99175.78;;;17.89;35.91
79563;BME280;69026;50.980;11.314;2023-04-06T12:56:22;99170.22;;;17.78;37.14
79563;BME280;69026;50.980;11.314;2023-04-06T12:58:50;99153.50;;;17.80;38.06
79563;BME280;69026;50.980;11.314;2023-04-06T13:01:17;99154.94;;;17.83;37.91